Time;durP1;ratioP1;P1;durP2;ratioP2;P2;SDS_P1;SDS_P2;PMS_P1;PMS_P2;Temp;Humidity;BMP_temperature;BMP_pressure;BME280_temperature;BME280_humidity;BME280_pressure;Samples;Min_cycle;Max_cycle;Signal;HPM_P1;HPM_P2
2023/11/28 00:01:28;;;;;;;;;;;;;;;;;;4954518;28;89957;-64
2023/11/28 00:03:53;;;;;;;;;;;;;;;;;;4959475;28;89690;-65
2023/11/28 00:06:19;;;;;;;;;;;;;;;;;;4954042;28;90464;-65
2023/11/28 00:08:45;;;;;;;;;;;;;;;;;;4963417;28;89913;-64
2023/11/28 00:11:15;;;;;;;;;;;;;;;;;;4959196;28;90853;-65
2023/11/28 00:13:40;;;;;;;;;;;;;;;;;;4965585;28;89532;-65
2023/11/28 00:16:05;;;;;;;;;;;;;;;;;;4950500;28;90439;-65
2023/11/28 00:18:31;;;;;;;;;;;;;;;;;;4959583;28;89487;-65
2023/11/28 00:20:56;;;;;;;;;;;;;;;;;;4958998;28;89142;-65
2023/11/28 00:23:22;;;;;;;;;;;;;;;;;;4963231;28;89476;-65
2023/11/28 00:25:47;;;;;;;;;;;;;;;;;;4952683;28;89108;-66
2023/11/28 00:28:12;;;;;;;;;;;;;;;;;;4961727;28;89267;-66
2023/11/28 00:30:38;;;;;;;;;;;;;;;;;;4963473;28;90014;-65
2023/11/28 00:33:03;;;;;;;;;;;;;;;;;;4958684;28;90020;-66
2023/11/28 00:35:28;;;;;;;;;;;;;;;;;;4968780;28;89970;-66
2023/11/28 00:37:53;;;;;;;;;;;;;;;;;;4957728;28;89900;-64
2023/11/28 00:40:18;;;;;;;;;;;;;;;;;;4959320;28;89501;-65
2023/11/28 00:42:44;;;;;;;;;;;;;;;;;;4953780;28;89613;-65
2023/11/28 00:45:12;;;;;;;;;;;;;;;;;;4953095;28;89353;-64
2023/11/28 00:47:39;;;;;;;;;;;;;;;;;;4956919;28;89258;-65
2023/11/28 00:50:04;;;;;;;;;;;;;;;;;;4964783;28;90152;-64
2023/11/28 00:52:30;;;;;;;;;;;;;;;;;;4967927;28;90748;-65
2023/11/28 00:54:55;;;;;;;;;;;;;;;;;;4965821;28;91247;-65
2023/11/28 00:57:21;;;;;;;;;;;;;;;;;;4966521;28;89326;-64
2023/11/28 00:59:46;;;;;;;;;;;;;;;;;;4965622;28;89338;-66
2023/11/28 01:02:11;;;;;;;;;;;;;;;;;;4965676;28;89891;-64
2023/11/28 01:04:37;;;;;;;;;;;;;;;;;;4965066;28;89541;-65
2023/11/28 01:07:02;;;;;;;;;;;;;;;;;;4966380;28;88949;-65
2023/11/28 01:09:27;;;;;;;;;;;;;;;;;;4977627;28;89956;-66
2023/11/28 01:11:52;;;;;;;;;;;;;;;;;;4989540;28;89454;-64
2023/11/28 01:14:18;;;;;;;;;;;;;;;;;;4992573;28;89191;-65
2023/11/28 01:16:46;;;;;;;;;;;;;;;;;;4989360;28;89197;-65
2023/11/28 01:19:11;;;;;;;;;;;;;;;;;;4981736;28;89528;-65
2023/11/28 01:21:36;;;;;;;;;;;;;;;;;;4969753;28;89506;-65
2023/11/28 01:24:02;;;;;;;;;;;;;;;;;;4969332;28;89791;-66
2023/11/28 01:26:27;;;;;;;;;;;;;;;;;;4969531;28;89147;-66
2023/11/28 01:28:52;;;;;;;;;;;;;;;;;;4968677;28;89466;-65
2023/11/28 01:31:17;;;;;;;;;;;;;;;;;;4968957;28;89573;-64
2023/11/28 01:33:43;;;;;;;;;;;;;;;;;;4969078;28;89346;-65
2023/11/28 01:36:08;;;;;;;;;;;;;;;;;;4971504;28;89572;-65
2023/11/28 01:38:34;;;;;;;;;;;;;;;;;;4968196;28;89471;-64
2023/11/28 01:40:59;;;;;;;;;;;;;;;;;;4968903;28;89695;-64
2023/11/28 01:43:28;;;;;;;;;;;;;;;;;;4968865;28;89677;-65
2023/11/28 01:45:54;;;;;;;;;;;;;;;;;;4970060;28;89366;-65
2023/11/28 01:48:19;;;;;;;;;;;;;;;;;;4970251;28;89675;-65
2023/11/28 01:50:46;;;;;;;;;;;;;;;;;;4970693;28;89394;-64
2023/11/28 01:53:12;;;;;;;;;;;;;;;;;;4970575;28;89794;-66
2023/11/28 01:55:37;;;;;;;;;;;;;;;;;;4970784;28;89498;-65
2023/11/28 01:58:02;;;;;;;;;;;;;;;;;;4974065;28;90173;-64
2023/11/28 02:00:27;;;;;;;;;;;;;;;;;;4971066;28;89524;-65
2023/11/28 02:02:57;;;;;;;;;;;;;;;;;;4971191;28;89215;-66
2023/11/28 02:05:22;;;;;;;;;;;;;;;;;;4970713;28;89121;-66
2023/11/28 02:07:48;;;;;;;;;;;;;;;;;;4971411;28;89626;-65
2023/11/28 02:10:14;;;;;;;;;;;;;;;;;;4971217;28;89359;-65
2023/11/28 02:12:41;;;;;;;;;;;;;;;;;;4971352;28;89703;-66
2023/11/28 02:15:07;;;;;;;;;;;;;;;;;;4971827;28;90065;-67
2023/11/28 02:17:33;;;;;;;;;;;;;;;;;;4972589;28;90176;-67
2023/11/28 02:19:58;;;;;;;;;;;;;;;;;;4974732;28;89059;-64
2023/11/28 02:22:24;;;;;;;;;;;;;;;;;;4967838;28;89423;-65
2023/11/28 02:24:50;;;;;;;;;;;;;;;;;;4968733;28;89112;-64
2023/11/28 02:27:15;;;;;;;;;;;;;;;;;;4966362;28;89478;-65
2023/11/28 02:29:44;;;;;;;;;;;;;;;;;;4958866;28;89684;-64
2023/11/28 02:32:09;;;;;;;;;;;;;;;;;;4967298;28;89570;-64
2023/11/28 02:34:34;;;;;;;;;;;;;;;;;;4968507;28;90429;-65
2023/11/28 02:36:59;;;;;;;;;;;;;;;;;;4957151;28;89677;-64
2023/11/28 02:39:25;;;;;;;;;;;;;;;;;;4950963;28;89834;-65
2023/11/28 02:41:50;;;;;;;;;;;;;;;;;;4948756;28;90285;-65
2023/11/28 02:44:15;;;;;;;;;;;;;;;;;;4948796;28;89378;-65
2023/11/28 02:46:41;;;;;;;;;;;;;;;;;;4950707;28;91169;-64
2023/11/28 02:49:06;;;;;;;;;;;;;;;;;;4966686;28;89455;-64
2023/11/28 02:51:31;;;;;;;;;;;;;;;;;;4967925;28;90281;-64
2023/11/28 02:53:57;;;;;;;;;;;;;;;;;;4967639;28;90292;-64
2023/11/28 02:56:22;;;;;;;;;;;;;;;;;;4982050;28;91682;-64
2023/11/28 02:58:47;;;;;;;;;;;;;;;;;;4966808;28;90650;-64
2023/11/28 03:01:12;;;;;;;;;;;;;;;;;;4983069;28;90102;-64
2023/11/28 03:03:37;;;;;;;;;;;;;;;;;;4988550;28;89837;-65
2023/11/28 03:06:03;;;;;;;;;;;;;;;;;;4988309;28;89759;-65
2023/11/28 03:08:28;;;;;;;;;;;;;;;;;;4989184;28;89418;-65
2023/11/28 03:10:53;;;;;;;;;;;;;;;;;;4988628;28;89558;-65
2023/11/28 03:13:19;;;;;;;;;;;;;;;;;;4989015;28;89921;-65
2023/11/28 03:15:44;;;;;;;;;;;;;;;;;;4987351;28;90250;-65
2023/11/28 03:18:10;;;;;;;;;;;;;;;;;;4968983;28;89115;-65
2023/11/28 03:20:35;;;;;;;;;;;;;;;;;;4968197;28;90689;-65
2023/11/28 03:23:01;;;;;;;;;;;;;;;;;;4972643;28;89378;-67
2023/11/28 03:25:26;;;;;;;;;;;;;;;;;;4969456;28;89555;-65
2023/11/28 03:27:51;;;;;;;;;;;;;;;;;;4969875;28;89204;-64
2023/11/28 03:30:16;;;;;;;;;;;;;;;;;;4969104;28;88963;-65
2023/11/28 03:32:42;;;;;;;;;;;;;;;;;;4967434;28;89626;-65
2023/11/28 03:35:07;;;;;;;;;;;;;;;;;;4967962;28;90194;-65
2023/11/28 03:37:32;;;;;;;;;;;;;;;;;;4968203;28;89039;-65
2023/11/28 03:39:57;;;;;;;;;;;;;;;;;;4967321;28;89701;-65
2023/11/28 03:42:23;;;;;;;;;;;;;;;;;;4967989;28;90698;-65
2023/11/28 03:44:48;;;;;;;;;;;;;;;;;;4970451;28;90063;-65
2023/11/28 03:47:13;;;;;;;;;;;;;;;;;;4968233;28;89827;-65
2023/11/28 03:49:39;;;;;;;;;;;;;;;;;;4967535;28;89352;-65
2023/11/28 03:52:04;;;;;;;;;;;;;;;;;;4967533;28;91438;-66
2023/11/28 03:54:29;;;;;;;;;;;;;;;;;;4969779;28;89083;-65
2023/11/28 03:56:55;;;;;;;;;;;;;;;;;;4970572;28;88983;-65
2023/11/28 03:59:20;;;;;;;;;;;;;;;;;;4972222;28;89123;-66
2023/11/28 04:01:45;;;;;;;;;;;;;;;;;;4973265;28;89130;-66
2023/11/28 04:04:10;;;;;;;;;;;;;;;;;;4969616;28;89290;-65
2023/11/28 04:06:35;;;;;;;;;;;;;;;;;;4970913;28;89707;-65
2023/11/28 04:09:01;;;;;;;;;;;;;;;;;;4967878;28;89664;-64
2023/11/28 04:11:26;;;;;;;;;;;;;;;;;;4967588;28;90471;-64
2023/11/28 04:13:51;;;;;;;;;;;;;;;;;;4966802;28;89558;-64
2023/11/28 04:16:17;;;;;;;;;;;;;;;;;;4966830;28;88997;-64
2023/11/28 04:18:43;;;;;;;;;;;;;;;;;;4965937;28;89664;-65
2023/11/28 04:21:13;;;;;;;;;;;;;;;;;;4966158;28;89404;-64
2023/11/28 04:23:39;;;;;;;;;;;;;;;;;;4966891;28;89011;-65
2023/11/28 04:26:05;;;;;;;;;;;;;;;;;;4966708;28;89344;-64
2023/11/28 04:28:30;;;;;;;;;;;;;;;;;;4970103;28;89249;-64
2023/11/28 04:30:55;;;;;;;;;;;;;;;;;;4966808;28;89291;-64
2023/11/28 04:33:20;;;;;;;;;;;;;;;;;;4967026;28;89388;-64
2023/11/28 04:35:46;;;;;;;;;;;;;;;;;;4967435;28;89398;-64
2023/11/28 04:38:11;;;;;;;;;;;;;;;;;;4967091;28;89477;-64
2023/11/28 04:40:36;;;;;;;;;;;;;;;;;;4959390;28;90152;-65
2023/11/28 04:43:02;;;;;;;;;;;;;;;;;;4953036;28;90130;-64
2023/11/28 04:45:27;;;;;;;;;;;;;;;;;;4952649;28;89633;-64
2023/11/28 04:47:52;;;;;;;;;;;;;;;;;;4959840;28;89674;-64
2023/11/28 04:50:17;;;;;;;;;;;;;;;;;;4960499;28;90165;-65
2023/11/28 04:52:43;;;;;;;;;;;;;;;;;;4953681;28;89770;-65
2023/11/28 04:55:08;;;;;;;;;;;;;;;;;;4952889;28;90434;-66
2023/11/28 04:57:33;;;;;;;;;;;;;;;;;;4953203;28;89474;-67
2023/11/28 04:59:58;;;;;;;;;;;;;;;;;;4954827;28;90125;-64
2023/11/28 05:02:24;;;;;;;;;;;;;;;;;;4955744;28;90517;-65
2023/11/28 05:04:49;;;;;;;;;;;;;;;;;;4956761;28;90487;-64
2023/11/28 05:07:16;;;;;;;;;;;;;;;;;;4955037;28;89783;-64
2023/11/28 05:09:41;;;;;;;;;;;;;;;;;;4959341;28;89735;-65
2023/11/28 05:12:08;;;;;;;;;;;;;;;;;;4961984;28;92207;-65
2023/11/28 05:14:33;;;;;;;;;;;;;;;;;;4960838;28;90331;-64
2023/11/28 05:16:59;;;;;;;;;;;;;;;;;;4958756;28;90706;-65
2023/11/28 05:19:24;;;;;;;;;;;;;;;;;;4954375;28;91104;-65
2023/11/28 05:21:51;;;;;;;;;;;;;;;;;;4955159;28;89988;-65
2023/11/28 05:24:16;;;;;;;;;;;;;;;;;;4955020;28;89705;-65
2023/11/28 05:26:42;;;;;;;;;;;;;;;;;;4956777;28;91135;-65
2023/11/28 05:29:07;;;;;;;;;;;;;;;;;;4951375;28;89750;-65
2023/11/28 05:31:32;;;;;;;;;;;;;;;;;;4961759;28;89777;-65
2023/11/28 05:33:57;;;;;;;;;;;;;;;;;;4957270;28;89059;-66
2023/11/28 05:36:22;;;;;;;;;;;;;;;;;;4951052;28;89960;-65
2023/11/28 05:38:48;;;;;;;;;;;;;;;;;;4953716;28;89738;-66
2023/11/28 05:41:13;;;;;;;;;;;;;;;;;;4952813;28;89287;-66
2023/11/28 05:43:39;;;;;;;;;;;;;;;;;;4958235;28;89483;-66
2023/11/28 05:46:05;;;;;;;;;;;;;;;;;;4954967;28;89966;-65
2023/11/28 05:48:30;;;;;;;;;;;;;;;;;;4957553;28;89595;-65
2023/11/28 05:50:56;;;;;;;;;;;;;;;;;;4948401;28;90039;-65
2023/11/28 05:53:21;;;;;;;;;;;;;;;;;;4960782;28;89267;-65
2023/11/28 05:55:47;;;;;;;;;;;;;;;;;;4953628;28;90691;-65
2023/11/28 05:58:12;;;;;;;;;;;;;;;;;;4957348;28;89744;-64
2023/11/28 06:00:38;;;;;;;;;;;;;;;;;;4959203;28;89057;-64
2023/11/28 06:03:04;;;;;;;;;;;;;;;;;;4959658;28;89651;-64
2023/11/28 06:05:30;;;;;;;;;;;;;;;;;;4962390;28;91998;-65
2023/11/28 06:07:55;;;;;;;;;;;;;;;;;;4960290;28;89534;-65
2023/11/28 06:10:21;;;;;;;;;;;;;;;;;;4959583;28;90971;-65
2023/11/28 06:12:46;;;;;;;;;;;;;;;;;;4958924;28;89122;-64
2023/11/28 06:15:11;;;;;;;;;;;;;;;;;;4964768;28;89091;-64
2023/11/28 06:17:37;;;;;;;;;;;;;;;;;;4954687;28;90235;-65
2023/11/28 06:20:04;;;;;;;;;;;;;;;;;;4960974;28;89536;-65
2023/11/28 06:22:29;;;;;;;;;;;;;;;;;;4957829;28;90892;-64
2023/11/28 06:24:54;;;;;;;;;;;;;;;;;;4954694;28;89985;-65
2023/11/28 06:27:20;;;;;;;;;;;;;;;;;;4971231;28;91239;-65
2023/11/28 06:29:45;;;;;;;;;;;;;;;;;;4960132;28;89831;-64
2023/11/28 06:32:10;;;;;;;;;;;;;;;;;;4955406;28;89620;-65
2023/11/28 06:34:35;;;;;;;;;;;;;;;;;;4954444;28;89844;-65
2023/11/28 06:37:01;;;;;;;;;;;;;;;;;;4974642;28;89612;-65
2023/11/28 06:39:27;;;;;;;;;;;;;;;;;;4957139;28;90097;-65
2023/11/28 06:41:52;;;;;;;;;;;;;;;;;;4957215;28;89635;-65
2023/11/28 06:44:19;;;;;;;;;;;;;;;;;;4952057;28;89364;-65
2023/11/28 06:46:46;;;;;;;;;;;;;;;;;;4958164;28;90405;-65
2023/11/28 06:49:11;;;;;;;;;;;;;;;;;;4954047;28;90708;-65
2023/11/28 06:51:37;;;;;;;;;;;;;;;;;;4960254;28;89402;-64
2023/11/28 06:54:02;;;;;;;;;;;;;;;;;;4952027;28;89088;-65
2023/11/28 06:56:27;;;;;;;;;;;;;;;;;;4963376;28;89527;-64
2023/11/28 06:58:52;;;;;;;;;;;;;;;;;;4954967;28;88997;-64
2023/11/28 07:01:18;;;;;;;;;;;;;;;;;;4955895;28;89531;-64
2023/11/28 07:03:43;;;;;;;;;;;;;;;;;;4955476;28;89915;-65
2023/11/28 07:06:09;;;;;;;;;;;;;;;;;;4958150;28;89298;-65
2023/11/28 07:08:34;;;;;;;;;;;;;;;;;;4953905;28;89949;-65
2023/11/28 07:11:00;;;;;;;;;;;;;;;;;;4960984;28;90669;-65
2023/11/28 07:13:25;;;;;;;;;;;;;;;;;;4970868;28;89788;-64
2023/11/28 07:15:50;;;;;;;;;;;;;;;;;;4955768;28;90627;-65
2023/11/28 07:18:20;;;;;;;;;;;;;;;;;;4960199;28;90197;-64
2023/11/28 07:20:45;;;;;;;;;;;;;;;;;;4958178;28;90624;-64
2023/11/28 07:23:11;;;;;;;;;;;;;;;;;;4958239;28;89783;-64
2023/11/28 07:25:36;;;;;;;;;;;;;;;;;;4954138;28;89523;-64
2023/11/28 07:28:01;;;;;;;;;;;;;;;;;;4974987;28;92466;-66
2023/11/28 07:30:27;;;;;;;;;;;;;;;;;;4962084;28;90675;-66
2023/11/28 07:32:52;;;;;;;;;;;;;;;;;;4959987;28;89649;-65
2023/11/28 07:35:17;;;;;;;;;;;;;;;;;;4961627;28;91170;-66
2023/11/28 07:37:42;;;;;;;;;;;;;;;;;;4958055;28;89255;-65
2023/11/28 07:40:08;;;;;;;;;;;;;;;;;;4955845;28;89423;-64
2023/11/28 07:42:33;;;;;;;;;;;;;;;;;;4956680;28;89720;-64
2023/11/28 07:44:59;;;;;;;;;;;;;;;;;;4955259;28;89670;-64
2023/11/28 07:47:24;;;;;;;;;;;;;;;;;;4956345;28;89778;-63
2023/11/28 07:49:49;;;;;;;;;;;;;;;;;;4962063;28;91971;-66
2023/11/28 07:52:15;;;;;;;;;;;;;;;;;;4958309;28;89504;-64
2023/11/28 07:54:40;;;;;;;;;;;;;;;;;;4955191;28;91018;-64
2023/11/28 07:57:05;;;;;;;;;;;;;;;;;;4951982;28;89403;-64
2023/11/28 07:59:31;;;;;;;;;;;;;;;;;;4956037;28;89739;-63
2023/11/28 08:01:56;;;;;;;;;;;;;;;;;;4959470;28;90324;-63
2023/11/28 08:04:22;;;;;;;;;;;;;;;;;;4957438;28;89038;-63
2023/11/28 08:06:47;;;;;;;;;;;;;;;;;;4952772;28;89486;-63
2023/11/28 08:09:13;;;;;;;;;;;;;;;;;;4972477;28;89473;-63
2023/11/28 08:11:38;;;;;;;;;;;;;;;;;;4956483;28;89697;-63
2023/11/28 08:14:04;;;;;;;;;;;;;;;;;;4956686;28;90685;-64
2023/11/28 08:16:29;;;;;;;;;;;;;;;;;;4956511;28;91342;-63
2023/11/28 08:18:54;;;;;;;;;;;;;;;;;;4951480;28;89934;-62
2023/11/28 08:21:20;;;;;;;;;;;;;;;;;;4953900;28;90830;-64
2023/11/28 08:23:46;;;;;;;;;;;;;;;;;;4963302;28;90275;-63
2023/11/28 08:26:11;;;;;;;;;;;;;;;;;;4953819;28;89513;-64
2023/11/28 08:28:36;;;;;;;;;;;;;;;;;;4955915;28;90129;-64
2023/11/28 08:31:01;;;;;;;;;;;;;;;;;;4955106;28;89830;-62
2023/11/28 08:33:27;;;;;;;;;;;;;;;;;;4955461;28;90468;-62
2023/11/28 08:35:52;;;;;;;;;;;;;;;;;;4959447;28;89950;-63
2023/11/28 08:38:17;;;;;;;;;;;;;;;;;;4955197;28;89065;-62
2023/11/28 08:40:42;;;;;;;;;;;;;;;;;;4957094;28;89782;-66
2023/11/28 08:43:09;;;;;;;;;;;;;;;;;;4955721;28;89611;-70
2023/11/28 08:45:34;;;;;;;;;;;;;;;;;;4960600;28;89169;-67
2023/11/28 08:47:59;;;;;;;;;;;;;;;;;;4958096;28;89878;-65
2023/11/28 08:50:24;;;;;;;;;;;;;;;;;;4959329;28;89462;-65
2023/11/28 08:52:49;;;;;;;;;;;;;;;;;;4952110;28;91088;-64
2023/11/28 08:55:15;;;;;;;;;;;;;;;;;;4957987;28;90263;-64
2023/11/28 08:57:40;;;;;;;;;;;;;;;;;;4956051;28;89869;-64
2023/11/28 09:00:06;;;;;;;;;;;;;;;;;;4955432;28;90178;-69
2023/11/28 09:02:32;;;;;;;;;;;;;;;;;;4957242;28;89518;-64
2023/11/28 09:04:57;;;;;;;;;;;;;;;;;;4991412;28;89751;-65
2023/11/28 09:07:23;;;;;;;;;;;;;;;;;;4975116;28;92011;-65
2023/11/28 09:09:48;;;;;;;;;;;;;;;;;;4956791;28;89512;-65
2023/11/28 09:12:17;;;;;;;;;;;;;;;;;;4953830;28;90278;-66
2023/11/28 09:14:42;;;;;;;;;;;;;;;;;;4956773;28;89123;-64
2023/11/28 09:17:07;;;;;;;;;;;;;;;;;;4954612;28;89560;-65
2023/11/28 09:19:32;;;;;;;;;;;;;;;;;;4958369;28;90155;-66
2023/11/28 09:21:58;;;;;;;;;;;;;;;;;;4959897;28;90327;-64
2023/11/28 09:24:23;;;;;;;;;;;;;;;;;;4957839;28;89433;-64
2023/11/28 09:26:48;;;;;;;;;;;;;;;;;;4963477;28;89486;-65
2023/11/28 09:29:16;;;;;;;;;;;;;;;;;;4958343;28;89098;-64
2023/11/28 09:31:42;;;;;;;;;;;;;;;;;;4962523;28;89008;-65
2023/11/28 09:34:07;;;;;;;;;;;;;;;;;;4963071;28;90626;-65
2023/11/28 09:36:32;;;;;;;;;;;;;;;;;;4963287;28;89213;-65
2023/11/28 09:39:03;;;;;;;;;;;;;;;;;;4960783;28;89726;-65
2023/11/28 09:41:29;;;;;;;;;;;;;;;;;;4963141;28;90289;-64
2023/11/28 09:43:54;;;;;;;;;;;;;;;;;;4962003;28;89036;-65
2023/11/28 09:46:21;;;;;;;;;;;;;;;;;;4959422;28;91379;-64
2023/11/28 09:48:47;;;;;;;;;;;;;;;;;;4962895;28;89696;-64
2023/11/28 09:51:14;;;;;;;;;;;;;;;;;;4966600;28;89931;-65
2023/11/28 09:53:41;;;;;;;;;;;;;;;;;;4960643;28;90315;-65
2023/11/28 09:56:06;;;;;;;;;;;;;;;;;;4962327;28;90007;-65
2023/11/28 09:58:32;;;;;;;;;;;;;;;;;;4964064;28;89760;-64
2023/11/28 10:00:58;;;;;;;;;;;;;;;;;;4961252;28;90780;-64
2023/11/28 10:03:24;;;;;;;;;;;;;;;;;;4961944;28;89734;-64
2023/11/28 10:05:51;;;;;;;;;;;;;;;;;;4961192;28;89892;-65
2023/11/28 10:08:18;;;;;;;;;;;;;;;;;;4964436;28;89337;-64
2023/11/28 10:10:44;;;;;;;;;;;;;;;;;;4964290;28;89027;-65
2023/11/28 10:13:09;;;;;;;;;;;;;;;;;;4964041;28;89215;-64
2023/11/28 10:15:34;;;;;;;;;;;;;;;;;;4962737;28;89171;-64
2023/11/28 10:18:00;;;;;;;;;;;;;;;;;;4963377;28;90365;-64
2023/11/28 10:20:27;;;;;;;;;;;;;;;;;;4962484;28;90680;-64
2023/11/28 10:22:53;;;;;;;;;;;;;;;;;;4961093;28;89122;-64
2023/11/28 10:25:20;;;;;;;;;;;;;;;;;;4960416;28;90431;-63
2023/11/28 10:27:46;;;;;;;;;;;;;;;;;;4957722;28;91131;-64
2023/11/28 10:30:12;;;;;;;;;;;;;;;;;;4960818;28;89149;-64
2023/11/28 10:32:38;;;;;;;;;;;;;;;;;;4963548;28;89591;-65
2023/11/28 10:35:04;;;;;;;;;;;;;;;;;;4963100;28;89480;-65
2023/11/28 10:37:29;;;;;;;;;;;;;;;;;;4961413;28;89613;-65
2023/11/28 10:39:54;;;;;;;;;;;;;;;;;;4959461;28;89238;-64
2023/11/28 10:42:20;;;;;;;;;;;;;;;;;;4962856;28;89611;-64
2023/11/28 10:44:45;;;;;;;;;;;;;;;;;;4962632;28;90714;-67
2023/11/28 10:47:12;;;;;;;;;;;;;;;;;;4962183;28;91192;-64
2023/11/28 10:49:37;;;;;;;;;;;;;;;;;;4964990;28;89471;-63
2023/11/28 10:52:03;;;;;;;;;;;;;;;;;;4967700;28;90668;-64
2023/11/28 10:54:33;;;;;;;;;;;;;;;;;;4957823;28;89028;-65
2023/11/28 10:57:01;;;;;;;;;;;;;;;;;;4976717;28;92134;-64
2023/11/28 10:59:26;;;;;;;;;;;;;;;;;;4964653;28;90160;-64
2023/11/28 11:01:52;;;;;;;;;;;;;;;;;;4961115;28;89212;-64
2023/11/28 11:04:17;;;;;;;;;;;;;;;;;;4964431;28;89521;-65
2023/11/28 11:06:43;;;;;;;;;;;;;;;;;;4963613;28;91561;-64
2023/11/28 11:09:11;;;;;;;;;;;;;;;;;;4967197;28;89216;-65
2023/11/28 11:11:36;;;;;;;;;;;;;;;;;;4965054;28;89526;-65
2023/11/28 11:14:25;;;;;;;;;;;;;;;;;;4971441;28;89941;-65
2023/11/28 11:16:54;;;;;;;;;;;;;;;;;;4964703;28;89662;-66
2023/11/28 11:19:19;;;;;;;;;;;;;;;;;;4965120;28;89177;-65
2023/11/28 11:21:53;;;;;;;;;;;;;;;;;;4964402;28;89284;-65
2023/11/28 11:24:19;;;;;;;;;;;;;;;;;;4963621;28;91055;-65
2023/11/28 11:26:45;;;;;;;;;;;;;;;;;;4963492;28;91350;-66
2023/11/28 11:29:22;;;;;;;;;;;;;;;;;;4961714;28;90322;-65
2023/11/28 11:31:52;;;;;;;;;;;;;;;;;;4962367;28;90637;-66
2023/11/28 11:34:36;;;;;;;;;;;;;;;;;;4965806;28;89773;-65
2023/11/28 11:37:10;;;;;;;;;;;;;;;;;;4964047;28;90307;-64
2023/11/28 11:39:36;;;;;;;;;;;;;;;;;;4959123;28;90158;-64
2023/11/28 11:42:02;;;;;;;;;;;;;;;;;;4963307;28;89462;-64
2023/11/28 11:44:27;;;;;;;;;;;;;;;;;;4962155;28;89467;-64
2023/11/28 11:46:52;;;;;;;;;;;;;;;;;;4963844;28;89244;-64
2023/11/28 11:49:18;;;;;;;;;;;;;;;;;;4963467;28;89642;-64
2023/11/28 11:51:44;;;;;;;;;;;;;;;;;;4964668;28;89595;-65
2023/11/28 11:54:10;;;;;;;;;;;;;;;;;;4961703;28;90702;-65
2023/11/28 11:56:35;;;;;;;;;;;;;;;;;;4976310;28;90261;-65
2023/11/28 11:59:04;;;;;;;;;;;;;;;;;;4968024;28;90484;-65
2023/11/28 12:01:30;;;;;;;;;;;;;;;;;;4962693;28;89874;-65
2023/11/28 12:03:59;;;;;;;;;;;;;;;;;;4964629;28;89713;-64
2023/11/28 12:06:24;;;;;;;;;;;;;;;;;;4963578;28;90385;-64
2023/11/28 12:08:49;;;;;;;;;;;;;;;;;;4960843;28;90523;-65
2023/11/28 12:11:14;;;;;;;;;;;;;;;;;;4965844;28;90529;-64
2023/11/28 12:13:40;;;;;;;;;;;;;;;;;;4962850;28;90017;-64
2023/11/28 12:16:05;;;;;;;;;;;;;;;;;;4963889;28;89122;-65
2023/11/28 12:18:31;;;;;;;;;;;;;;;;;;4963637;28;90626;-65
2023/11/28 12:20:57;;;;;;;;;;;;;;;;;;4966937;28;90018;-65
2023/11/28 12:23:22;;;;;;;;;;;;;;;;;;4960891;28;91397;-65
2023/11/28 12:25:47;;;;;;;;;;;;;;;;;;4962666;28;89146;-65
2023/11/28 12:28:13;;;;;;;;;;;;;;;;;;4961708;28;89490;-64
2023/11/28 12:30:39;;;;;;;;;;;;;;;;;;4961825;28;89396;-65
2023/11/28 12:33:04;;;;;;;;;;;;;;;;;;4961533;28;90191;-64
2023/11/28 12:35:30;;;;;;;;;;;;;;;;;;4962781;28;89108;-64
2023/11/28 12:37:55;;;;;;;;;;;;;;;;;;4964316;28;89978;-73
2023/11/28 12:40:22;;;;;;;;;;;;;;;;;;4963242;28;90215;-64
2023/11/28 12:42:48;;;;;;;;;;;;;;;;;;4965877;28;89896;-64
2023/11/28 12:45:13;;;;;;;;;;;;;;;;;;4962631;28;89703;-64
2023/11/28 12:47:39;;;;;;;;;;;;;;;;;;4963370;28;89687;-66
2023/11/28 12:50:07;;;;;;;;;;;;;;;;;;4964626;28;89353;-65
2023/11/28 12:52:34;;;;;;;;;;;;;;;;;;4963061;28;89232;-65
2023/11/28 12:55:01;;;;;;;;;;;;;;;;;;4962809;28;89043;-65
2023/11/28 12:57:27;;;;;;;;;;;;;;;;;;4961381;28;90316;-64
2023/11/28 12:59:52;;;;;;;;;;;;;;;;;;4961570;28;89193;-65
2023/11/28 13:02:18;;;;;;;;;;;;;;;;;;4966028;28;89292;-64
2023/11/28 13:04:43;;;;;;;;;;;;;;;;;;4960490;28;90222;-65
2023/11/28 13:07:09;;;;;;;;;;;;;;;;;;4965061;28;89325;-65
2023/11/28 13:09:35;;;;;;;;;;;;;;;;;;4965594;28;89540;-64
2023/11/28 13:12:02;;;;;;;;;;;;;;;;;;4967322;28;89956;-65
2023/11/28 13:14:28;;;;;;;;;;;;;;;;;;4966563;28;89154;-64
2023/11/28 13:16:54;;;;;;;;;;;;;;;;;;4966892;28;90619;-64
2023/11/28 13:19:19;;;;;;;;;;;;;;;;;;4965967;28;89805;-64
2023/11/28 13:21:44;;;;;;;;;;;;;;;;;;4966536;28;89306;-65
2023/11/28 13:24:12;;;;;;;;;;;;;;;;;;4968216;28;89652;-65
2023/11/28 13:26:37;;;;;;;;;;;;;;;;;;4962908;28;90103;-65
2023/11/28 13:29:02;;;;;;;;;;;;;;;;;;4966970;28;89550;-65
2023/11/28 13:31:28;;;;;;;;;;;;;;;;;;4967200;28;90663;-65
2023/11/28 13:33:54;;;;;;;;;;;;;;;;;;4968041;28;91773;-65
2023/11/28 13:36:20;;;;;;;;;;;;;;;;;;4965586;28;90085;-65
2023/11/28 13:38:45;;;;;;;;;;;;;;;;;;4962847;28;90152;-64
2023/11/28 13:41:14;;;;;;;;;;;;;;;;;;4964535;28;89423;-65
2023/11/28 13:43:40;;;;;;;;;;;;;;;;;;4962806;28;89872;-64
2023/11/28 13:46:06;;;;;;;;;;;;;;;;;;4969608;28;90409;-64
2023/11/28 13:48:32;;;;;;;;;;;;;;;;;;4965048;28;89478;-65
2023/11/28 13:50:57;;;;;;;;;;;;;;;;;;4962216;28;89631;-64
2023/11/28 13:53:22;;;;;;;;;;;;;;;;;;4963344;28;89582;-65
2023/11/28 13:55:48;;;;;;;;;;;;;;;;;;4963912;28;89559;-65
2023/11/28 13:58:13;;;;;;;;;;;;;;;;;;4965623;28;89618;-65
2023/11/28 14:00:38;;;;;;;;;;;;;;;;;;4965911;28;89888;-65
2023/11/28 14:03:04;;;;;;;;;;;;;;;;;;4962937;28;89529;-65
2023/11/28 14:05:29;;;;;;;;;;;;;;;;;;4965979;28;89187;-65
2023/11/28 14:07:55;;;;;;;;;;;;;;;;;;4969166;28;89407;-64
2023/11/28 14:10:20;;;;;;;;;;;;;;;;;;4966487;28;89773;-65
2023/11/28 14:12:45;;;;;;;;;;;;;;;;;;4963555;28;89544;-64
2023/11/28 14:15:10;;;;;;;;;;;;;;;;;;4965993;28;89884;-64
2023/11/28 14:17:36;;;;;;;;;;;;;;;;;;4965430;28;89441;-64
2023/11/28 14:20:06;;;;;;;;;;;;;;;;;;4967085;28;89078;-64
2023/11/28 14:22:31;;;;;;;;;;;;;;;;;;4963789;28;90266;-64
2023/11/28 14:24:56;;;;;;;;;;;;;;;;;;4965616;28;90884;-64
2023/11/28 14:27:21;;;;;;;;;;;;;;;;;;4964381;28;90902;-65
2023/11/28 14:29:47;;;;;;;;;;;;;;;;;;4970355;28;90202;-65
2023/11/28 14:32:12;;;;;;;;;;;;;;;;;;4966861;28;89413;-65
2023/11/28 14:34:38;;;;;;;;;;;;;;;;;;4966479;28;89479;-65
2023/11/28 14:37:03;;;;;;;;;;;;;;;;;;4965266;28;90184;-65
2023/11/28 14:39:28;;;;;;;;;;;;;;;;;;4966372;28;89123;-64
2023/11/28 14:41:54;;;;;;;;;;;;;;;;;;4965471;28;89481;-65
2023/11/28 14:44:19;;;;;;;;;;;;;;;;;;4966483;28;89601;-65
2023/11/28 14:46:44;;;;;;;;;;;;;;;;;;4965698;28;90161;-65
2023/11/28 14:49:10;;;;;;;;;;;;;;;;;;4962696;28;90252;-65
2023/11/28 14:51:37;;;;;;;;;;;;;;;;;;4966097;28;90532;-65
2023/11/28 14:54:02;;;;;;;;;;;;;;;;;;4965204;28;90875;-65
2023/11/28 14:56:28;;;;;;;;;;;;;;;;;;4963732;28;89749;-65
2023/11/28 14:58:53;;;;;;;;;;;;;;;;;;4966001;28;89644;-65
2023/11/28 15:01:19;;;;;;;;;;;;;;;;;;4964990;28;90614;-64
2023/11/28 15:03:44;;;;;;;;;;;;;;;;;;4964303;28;90720;-64
2023/11/28 15:06:09;;;;;;;;;;;;;;;;;;4962236;28;89899;-65
2023/11/28 15:08:34;;;;;;;;;;;;;;;;;;4968522;28;89801;-65
2023/11/28 15:11:00;;;;;;;;;;;;;;;;;;4966935;28;90068;-64
2023/11/28 15:13:25;;;;;;;;;;;;;;;;;;4966375;28;90000;-64
2023/11/28 15:15:51;;;;;;;;;;;;;;;;;;4963683;28;89914;-64
2023/11/28 15:18:16;;;;;;;;;;;;;;;;;;4964883;28;90552;-65
2023/11/28 15:20:42;;;;;;;;;;;;;;;;;;4965334;28;89421;-65
2023/11/28 15:23:07;;;;;;;;;;;;;;;;;;4965568;28;89584;-66
2023/11/28 15:25:32;;;;;;;;;;;;;;;;;;4961077;28;88996;-65
2023/11/28 15:27:59;;;;;;;;;;;;;;;;;;4965073;28;89082;-66
2023/11/28 15:30:25;;;;;;;;;;;;;;;;;;4964798;28;90629;-65
2023/11/28 15:32:51;;;;;;;;;;;;;;;;;;4965842;28;89908;-65
2023/11/28 15:35:16;;;;;;;;;;;;;;;;;;4964343;28;89021;-65
2023/11/28 15:37:44;;;;;;;;;;;;;;;;;;4965622;28;90331;-65
2023/11/28 15:40:17;;;;;;;;;;;;;;;;;;4965356;28;89715;-65
2023/11/28 15:42:42;;;;;;;;;;;;;;;;;;4964631;28;90305;-65
2023/11/28 15:45:09;;;;;;;;;;;;;;;;;;4965308;28;89313;-65
2023/11/28 15:47:35;;;;;;;;;;;;;;;;;;4963991;28;90634;-65
2023/11/28 15:50:00;;;;;;;;;;;;;;;;;;4963273;28;90183;-66
2023/11/28 15:52:25;;;;;;;;;;;;;;;;;;4964496;28;91710;-65
2023/11/28 15:54:53;;;;;;;;;;;;;;;;;;4965911;28;90281;-66
2023/11/28 15:57:19;;;;;;;;;;;;;;;;;;4963293;28;89305;-65
2023/11/28 15:59:44;;;;;;;;;;;;;;;;;;4964393;28;90620;-65
2023/11/28 16:02:10;;;;;;;;;;;;;;;;;;4964987;28;89792;-65
2023/11/28 16:04:35;;;;;;;;;;;;;;;;;;4965306;28;89617;-65
2023/11/28 16:07:00;;;;;;;;;;;;;;;;;;4964554;28;89506;-65
2023/11/28 16:09:25;;;;;;;;;;;;;;;;;;4965631;28;89621;-65
2023/11/28 16:11:51;;;;;;;;;;;;;;;;;;4964103;28;89564;-65
2023/11/28 16:14:16;;;;;;;;;;;;;;;;;;4964110;28;91005;-65
2023/11/28 16:16:42;;;;;;;;;;;;;;;;;;4967715;28;89913;-65
2023/11/28 16:19:08;;;;;;;;;;;;;;;;;;4962284;28;89455;-65
2023/11/28 16:21:33;;;;;;;;;;;;;;;;;;4964639;28;89188;-66
2023/11/28 16:23:58;;;;;;;;;;;;;;;;;;4963116;28;89044;-65
2023/11/28 16:26:24;;;;;;;;;;;;;;;;;;4960334;28;90601;-66
2023/11/28 16:28:49;;;;;;;;;;;;;;;;;;4978832;28;91974;-65
2023/11/28 16:31:20;;;;;;;;;;;;;;;;;;4964309;28;89308;-66
2023/11/28 16:33:47;;;;;;;;;;;;;;;;;;4954358;28;90857;-65
2023/11/28 16:36:12;;;;;;;;;;;;;;;;;;4963381;28;90670;-65